Time;durP1;ratioP1;P1;durP2;ratioP2;P2;SDS_P1;SDS_P2;PMS_P1;PMS_P2;Temp;Humidity;BMP_temperature;BMP_pressure;BME280_temperature;BME280_humidity;BME280_pressure;Samples;Min_cycle;Max_cycle;Signal;HPM_P1;HPM_P2
2022/04/25 00:00:37;;;;;;;;;21.33;20.67;;;;;;;;5104121;27;45497;-78
2022/04/25 00:03:03;;;;;;;;;26.67;24.00;;;;;;;;5104298;27;45357;-78
2022/04/25 00:05:28;;;;;;;;;27.67;26.00;;;;;;;;5122625;27;45220;-78
2022/04/25 00:07:54;;;;;;;;;23.33;23.33;;;;;;;;5122514;27;45532;-78
2022/04/25 00:10:19;;;;;;;;;23.00;20.67;;;;;;;;5104146;27;45571;-78
2022/04/25 00:12:44;;;;;;;;;24.00;23.75;;;;;;;;5122711;27;45301;-78
2022/04/25 00:15:10;;;;;;;;;21.75;20.50;;;;;;;;5122518;27;45289;-78
2022/04/25 00:17:35;;;;;;;;;24.00;21.00;;;;;;;;5122377;27;45348;-78
2022/04/25 00:20:00;;;;;;;;;23.25;22.00;;;;;;;;5122238;27;45335;-78
2022/04/25 00:22:26;;;;;;;;;23.33;23.33;;;;;;;;5103921;27;45377;-77
2022/04/25 00:24:51;;;;;;;;;24.00;22.00;;;;;;;;5103553;27;46257;-78
2022/04/25 00:27:16;;;;;;;;;28.25;27.25;;;;;;;;5122265;27;46090;-77
2022/04/25 00:29:42;;;;;;;;;21.67;20.00;;;;;;;;5103726;27;45406;-78
2022/04/25 00:32:08;;;;;;;;;24.33;22.00;;;;;;;;5122232;27;45198;-77
2022/04/25 00:34:33;;;;;;;;;21.00;19.67;;;;;;;;5121829;27;45504;-77
2022/04/25 00:36:59;;;;;;;;;23.00;22.00;;;;;;;;5121845;27;45362;-78
2022/04/25 00:39:24;;;;;;;;;26.67;23.00;;;;;;;;5122353;27;45360;-78
2022/04/25 00:41:50;;;;;;;;;25.67;23.33;;;;;;;;5103145;27;45409;-78
2022/04/25 00:44:15;;;;;;;;;20.67;20.67;;;;;;;;5122106;27;45536;-77
2022/04/25 00:46:40;;;;;;;;;22.67;21.67;;;;;;;;5121879;27;45389;-78
2022/04/25 00:49:05;;;;;;;;;23.25;22.00;;;;;;;;5121215;27;45331;-78
2022/04/25 00:51:31;;;;;;;;;26.50;26.50;;;;;;;;5121038;27;45482;-78
2022/04/25 00:53:56;;;;;;;;;24.67;22.33;;;;;;;;5122065;27;45325;-78
2022/04/25 00:56:23;;;;;;;;;21.33;21.33;;;;;;;;5121661;27;45442;-78
2022/04/25 00:58:49;;;;;;;;;28.00;27.33;;;;;;;;5122005;27;45229;-78
2022/04/25 01:01:15;;;;;;;;;25.67;22.33;;;;;;;;5103061;27;45303;-79
2022/04/25 01:03:40;;;;;;;;;23.00;22.33;;;;;;;;5103123;27;47078;-78
2022/04/25 01:06:06;;;;;;;;;26.00;23.33;;;;;;;;5121675;27;45319;-78
2022/04/25 01:08:34;;;;;;;;;25.50;24.50;;;;;;;;5121553;27;45327;-78
2022/04/25 01:11:01;;;;;;;;;21.00;21.00;;;;;;;;5121584;27;45309;-78
2022/04/25 01:13:26;;;;;;;;;22.67;21.67;;;;;;;;5121417;27;45465;-78
2022/04/25 01:15:51;;;;;;;;;21.67;19.67;;;;;;;;5110056;27;46386;-77
2022/04/25 01:18:16;;;;;;;;;23.33;21.00;;;;;;;;5101067;27;45349;-77
2022/04/25 01:20:42;;;;;;;;;20.00;20.00;;;;;;;;5101201;27;45232;-78
2022/04/25 01:28:43;;;;;;;;;21.67;21.67;;;;;;;;5100587;27;45821;-78
2022/04/25 01:31:09;;;;;;;;;23.67;22.00;;;;;;;;5082121;27;45367;-77
2022/04/25 01:33:34;;;;;;;;;23.67;23.00;;;;;;;;5100481;27;45310;-78
2022/04/25 01:35:59;;;;;;;;;22.33;22.33;;;;;;;;5100571;27;45389;-78
2022/04/25 01:38:24;;;;;;;;;24.33;21.33;;;;;;;;5082324;27;45371;-78
2022/04/25 01:40:49;;;;;;;;;21.33;19.67;;;;;;;;5100229;27;45496;-78
2022/04/25 01:43:15;;;;;;;;;22.00;21.33;;;;;;;;5100509;27;45635;-78
2022/04/25 01:45:40;;;;;;;;;22.67;22.67;;;;;;;;5100507;27;46276;-77
2022/04/25 01:48:06;;;;;;;;;21.67;20.00;;;;;;;;5100125;27;45318;-78
2022/04/25 01:50:31;;;;;;;;;24.67;21.00;;;;;;;;5100671;27;45472;-79
2022/04/25 01:52:56;;;;;;;;;23.00;23.00;;;;;;;;5120164;27;45613;-77
2022/04/25 01:55:21;;;;;;;;;23.33;22.00;;;;;;;;5120647;27;46130;-78
2022/04/25 01:57:46;;;;;;;;;21.00;20.33;;;;;;;;5102063;27;45765;-78
2022/04/25 02:00:12;;;;;;;;;19.00;19.00;;;;;;;;5102270;27;45423;-77
2022/04/25 02:02:37;;;;;;;;;21.67;20.67;;;;;;;;5120285;27;45321;-77
2022/04/25 02:05:03;;;;;;;;;8.67;7.00;;;;;;;;5102153;27;47173;-77
2022/04/25 02:07:29;;;;;;;;;19.33;19.33;;;;;;;;5102188;27;45263;-78
2022/04/25 02:09:54;;;;;;;;;19.33;19.33;;;;;;;;5120540;27;45305;-78
2022/04/25 02:12:20;;;;;;;;;21.67;20.00;;;;;;;;5120480;27;45482;-78
2022/04/25 02:14:46;;;;;;;;;19.00;19.00;;;;;;;;5120615;27;46124;-76
2022/04/25 02:17:13;;;;;;;;;24.33;22.00;;;;;;;;5120260;27;45215;-78
2022/04/25 02:19:38;;;;;;;;;22.33;21.33;;;;;;;;5120733;27;45531;-77
2022/04/25 02:22:09;;;;;;;;;24.33;23.67;;;;;;;;5101883;27;46829;-77
2022/04/25 02:24:34;;;;;;;;;26.33;23.67;;;;;;;;5120175;27;45350;-78
2022/04/25 02:27:03;;;;;;;;;18.67;18.00;;;;;;;;5120400;27;45238;-77
2022/04/25 02:29:28;;;;;;;;;25.33;24.00;;;;;;;;5120801;27;45302;-78
2022/04/25 02:31:53;;;;;;;;;18.33;16.67;;;;;;;;5120279;27;45441;-78
2022/04/25 02:34:19;;;;;;;;;24.00;20.00;;;;;;;;5120440;27;45382;-79
2022/04/25 02:36:45;;;;;;;;;19.67;18.33;;;;;;;;5119993;27;45310;-77
2022/04/25 02:39:10;;;;;;;;;21.67;18.67;;;;;;;;5120477;27;45372;-77
2022/04/25 02:41:35;;;;;;;;;24.00;24.00;;;;;;;;5101392;27;47317;-77
2022/04/25 02:44:00;;;;;;;;;25.33;22.67;;;;;;;;5120181;27;45392;-77
2022/04/25 02:46:26;;;;;;;;;20.33;20.33;;;;;;;;5101733;27;45380;-77
2022/04/25 02:48:52;;;;;;;;;23.33;21.67;;;;;;;;5120744;27;45322;-77
2022/04/25 02:51:17;;;;;;;;;19.00;18.00;;;;;;;;5101524;27;47545;-77
2022/04/25 02:53:43;;;;;;;;;21.67;18.67;;;;;;;;5119687;27;45686;-77
2022/04/25 02:56:09;;;;;;;;;21.00;19.67;;;;;;;;5119892;27;45253;-78
2022/04/25 02:58:35;;;;;;;;;21.67;21.67;;;;;;;;5120363;27;45279;-77
2022/04/25 03:01:04;;;;;;;;;25.67;24.67;;;;;;;;5119827;27;45650;-78
2022/04/25 03:03:31;;;;;;;;;23.33;22.67;;;;;;;;5119928;27;45379;-79
2022/04/25 03:05:56;;;;;;;;;20.33;20.33;;;;;;;;5101284;27;45405;-78
2022/04/25 03:08:23;;;;;;;;;26.67;25.00;;;;;;;;5119937;27;45388;-78
2022/04/25 03:10:51;;;;;;;;;23.50;21.50;;;;;;;;5119456;27;45295;-78
2022/04/25 03:13:16;;;;;;;;;23.00;21.00;;;;;;;;5120829;27;45376;-78
2022/04/25 03:15:42;;;;;;;;;23.33;23.00;;;;;;;;5104603;27;45942;-78
2022/04/25 03:18:08;;;;;;;;;24.67;22.33;;;;;;;;5123648;27;45248;-78
2022/04/25 03:20:33;;;;;;;;;23.33;22.00;;;;;;;;5123395;27;45506;-78
2022/04/25 03:22:59;;;;;;;;;27.75;27.75;;;;;;;;5123164;27;46056;-78
2022/04/25 03:25:24;;;;;;;;;26.00;24.67;;;;;;;;5104569;27;45314;-77
2022/04/25 03:27:50;;;;;;;;;22.67;21.67;;;;;;;;5123740;27;45328;-77
2022/04/25 03:30:15;;;;;;;;;24.33;21.33;;;;;;;;5122896;27;45466;-78
2022/04/25 03:32:47;;;;;;;;;28.25;26.25;;;;;;;;5104362;27;47087;-77
2022/04/25 03:35:13;;;;;;;;;30.25;28.00;;;;;;;;5104398;27;45388;-78
2022/04/25 03:37:38;;;;;;;;;25.50;24.00;;;;;;;;5123005;27;45487;-78
2022/04/25 03:40:05;;;;;;;;;32.25;25.75;;;;;;;;5122903;27;45410;-78
2022/04/25 03:42:30;;;;;;;;;24.25;23.25;;;;;;;;5104384;27;48139;-76
2022/04/25 03:44:55;;;;;;;;;25.50;22.00;;;;;;;;5104736;27;45350;-78
2022/04/25 03:47:20;;;;;;;;;25.00;24.25;;;;;;;;5123422;27;45254;-77
2022/04/25 03:49:46;;;;;;;;;28.50;26.75;;;;;;;;5104204;27;46451;-76
2022/04/25 03:52:11;;;;;;;;;27.50;27.00;;;;;;;;5122731;27;46701;-77
2022/04/25 03:57:20;;;;;;;;;30.25;27.75;;;;;;;;5122913;27;45350;-78
2022/04/25 03:59:46;;;;;;;;;31.75;28.75;;;;;;;;5122669;27;45571;-78
2022/04/25 04:02:11;;;;;;;;;31.00;31.00;;;;;;;;5122880;27;45324;-77
2022/04/25 04:04:36;;;;;;;;;28.50;27.25;;;;;;;;5104086;27;45754;-78
2022/04/25 04:07:02;;;;;;;;;28.00;28.00;;;;;;;;5122649;27;45281;-79
2022/04/25 04:09:45;;;;;;;;;28.25;28.00;;;;;;;;5122689;27;45462;-78
2022/04/25 04:12:15;;;;;;;;;29.00;26.00;;;;;;;;5103951;27;47081;-77
2022/04/25 04:14:40;;;;;;;;;32.50;30.25;;;;;;;;5122134;27;45346;-78
2022/04/25 04:17:07;;;;;;;;;32.50;27.25;;;;;;;;5122595;27;45290;-78
2022/04/25 04:19:32;;;;;;;;;32.00;27.00;;;;;;;;5122367;27;45486;-78
2022/04/25 04:21:57;;;;;;;;;28.75;27.50;;;;;;;;5103351;27;46582;-78
2022/04/25 04:24:22;;;;;;;;;28.00;26.75;;;;;;;;5122161;27;45316;-78
2022/04/25 04:26:47;;;;;;;;;29.25;27.00;;;;;;;;5122263;27;45352;-78
2022/04/25 04:29:13;;;;;;;;;26.25;25.75;;;;;;;;5122603;27;45309;-78
2022/04/25 04:31:38;;;;;;;;;28.25;28.25;;;;;;;;5122300;27;45270;-78
2022/04/25 04:34:03;;;;;;;;;33.50;31.00;;;;;;;;5122169;27;45250;-79
2022/04/25 04:36:29;;;;;;;;;32.25;29.75;;;;;;;;5122090;27;45351;-78
2022/04/25 04:38:54;;;;;;;;;40.75;32.75;;;;;;;;5122157;27;45648;-79
2022/04/25 04:41:19;;;;;;;;;37.50;32.25;;;;;;;;5122037;27;45291;-77
2022/04/25 04:43:44;;;;;;;;;35.50;31.25;;;;;;;;5103510;27;45385;-78
2022/04/25 04:46:10;;;;;;;;;36.75;33.00;;;;;;;;5103773;27;45460;-77
2022/04/25 04:48:35;;;;;;;;;34.00;28.75;;;;;;;;5122006;27;45482;-78
2022/04/25 04:51:00;;;;;;;;;33.25;31.00;;;;;;;;5118077;27;45364;-78
2022/04/25 04:53:26;;;;;;;;;32.00;30.25;;;;;;;;5101187;27;45355;-78
2022/04/25 04:55:52;;;;;;;;;33.25;30.25;;;;;;;;5101381;27;45757;-78
2022/04/25 04:58:18;;;;;;;;;36.75;32.00;;;;;;;;5082789;27;45922;-79
2022/04/25 05:00:44;;;;;;;;;32.75;28.50;;;;;;;;5101314;27;45346;-77
2022/04/25 05:03:15;;;;;;;;;36.75;32.50;;;;;;;;5101274;27;45280;-77
2022/04/25 05:05:41;;;;;;;;;35.25;31.75;;;;;;;;5101358;27;45346;-78
2022/04/25 05:08:06;;;;;;;;;33.25;29.50;;;;;;;;5082331;27;46266;-80
2022/04/25 05:10:31;;;;;;;;;35.00;30.25;;;;;;;;5100663;27;46595;-78
2022/04/25 05:12:57;;;;;;;;;31.75;30.00;;;;;;;;5092398;27;45325;-79
2022/04/25 05:15:23;;;;;;;;;38.50;32.00;;;;;;;;5076702;27;45438;-78
2022/04/25 05:17:50;;;;;;;;;29.00;27.25;;;;;;;;5086390;27;46266;-77
2022/04/25 05:20:16;;;;;;;;;38.25;33.50;;;;;;;;5114538;27;46349;-78
2022/04/25 05:22:44;;;;;;;;;37.00;33.00;;;;;;;;5120961;27;45298;-78
2022/04/25 05:25:10;;;;;;;;;36.75;34.00;;;;;;;;5064495;27;45587;-78
2022/04/25 05:27:35;;;;;;;;;35.75;32.75;;;;;;;;5080254;27;45443;-80
2022/04/25 05:30:00;;;;;;;;;30.25;29.00;;;;;;;;5062512;28;47549;-79
2022/04/25 05:32:25;;;;;;;;;33.50;32.25;;;;;;;;5084007;27;45470;-78
2022/04/25 05:34:51;;;;;;;;;34.25;31.00;;;;;;;;5080267;27;45338;-79
2022/04/25 05:37:16;;;;;;;;;37.00;33.00;;;;;;;;5088449;27;45377;-80
2022/04/25 05:39:41;;;;;;;;;37.50;33.50;;;;;;;;5068587;27;48023;-79
2022/04/25 05:42:07;;;;;;;;;39.25;34.50;;;;;;;;5081530;27;45426;-81
2022/04/25 05:44:33;;;;;;;;;36.50;32.25;;;;;;;;5101842;27;45383;-83
2022/04/25 05:46:58;;;;;;;;;37.00;32.75;;;;;;;;5097186;27;45390;-82
2022/04/25 05:52:08;;;;;;;;;40.50;34.75;;;;;;;;5117117;27;45374;-80
2022/04/25 05:54:34;;;;;;;;;36.75;31.00;;;;;;;;5118653;27;45241;-81
2022/04/25 05:57:00;;;;;;;;;34.50;32.75;;;;;;;;5101003;27;46148;-78
2022/04/25 05:59:25;;;;;;;;;42.00;35.00;;;;;;;;5101448;27;47180;-77
2022/04/25 06:01:53;;;;;;;;;43.50;36.25;;;;;;;;5121085;27;45423;-78
2022/04/25 06:04:18;;;;;;;;;43.00;35.25;;;;;;;;5124860;27;45857;-79
2022/04/25 06:06:43;;;;;;;;;43.25;37.00;;;;;;;;5112466;27;45906;-77
2022/04/25 06:09:09;;;;;;;;;42.25;35.50;;;;;;;;5090333;27;48277;-76
2022/04/25 06:11:34;;;;;;;;;42.00;36.00;;;;;;;;5119960;27;45696;-77
2022/04/25 06:14:02;;;;;;;;;39.25;35.00;;;;;;;;5103866;27;45634;-77
2022/04/25 06:16:27;;;;;;;;;43.75;35.75;;;;;;;;5115645;27;45404;-76
2022/04/25 06:18:52;;;;;;;;;42.50;36.00;;;;;;;;5119887;27;45559;-76
2022/04/25 06:21:17;;;;;;;;;44.75;38.00;;;;;;;;5120024;27;45492;-76
2022/04/25 06:23:42;;;;;;;;;39.50;35.00;;;;;;;;5120629;27;45330;-76
2022/04/25 06:26:08;;;;;;;;;49.00;40.75;;;;;;;;5120695;27;45267;-77
2022/04/25 06:28:33;;;;;;;;;50.50;38.50;;;;;;;;5119558;27;45437;-77
2022/04/25 06:30:58;;;;;;;;;45.50;39.00;;;;;;;;5121223;27;45319;-77
2022/04/25 06:33:24;;;;;;;;;43.75;37.25;;;;;;;;5101404;27;45460;-78
2022/04/25 06:35:49;;;;;;;;;45.50;39.00;;;;;;;;5141472;27;45215;-77
2022/04/25 06:38:15;;;;;;;;;40.00;35.75;;;;;;;;5119301;27;45982;-76
2022/04/25 06:40:41;;;;;;;;;46.25;39.00;;;;;;;;5120637;27;45795;-77
2022/04/25 06:43:07;;;;;;;;;48.50;41.50;;;;;;;;5120488;27;45531;-77
2022/04/25 06:45:33;;;;;;;;;47.25;39.75;;;;;;;;5120566;27;45396;-77
2022/04/25 06:47:58;;;;;;;;;45.50;38.00;;;;;;;;5122141;27;46060;-76
2022/04/25 06:50:24;;;;;;;;;48.25;41.50;;;;;;;;5123908;27;45722;-77
2022/04/25 06:52:49;;;;;;;;;51.50;42.00;;;;;;;;5119899;27;45856;-77
2022/04/25 06:55:14;;;;;;;;;49.75;41.25;;;;;;;;5121285;27;45643;-76
2022/04/25 06:57:39;;;;;;;;;53.50;42.50;;;;;;;;5123045;27;45385;-77
2022/04/25 07:00:08;;;;;;;;;50.75;43.75;;;;;;;;5123522;27;45417;-77
2022/04/25 07:02:33;;;;;;;;;53.00;42.25;;;;;;;;5102398;27;45411;-78
2022/04/25 07:04:58;;;;;;;;;52.00;43.00;;;;;;;;5100217;27;46188;-78
2022/04/25 07:07:25;;;;;;;;;53.25;43.75;;;;;;;;5126806;27;46430;-80
2022/04/25 07:09:50;;;;;;;;;51.75;43.25;;;;;;;;5107596;27;46267;-78
2022/04/25 07:12:16;;;;;;;;;51.25;42.25;;;;;;;;5123683;27;45671;-78
2022/04/25 07:14:41;;;;;;;;;54.00;44.75;;;;;;;;5124352;27;45291;-76
2022/04/25 07:17:06;;;;;;;;;55.00;44.25;;;;;;;;5111980;27;45425;-78
2022/04/25 07:19:31;;;;;;;;;57.00;46.00;;;;;;;;5103752;27;45193;-76
2022/04/25 07:30:09;;;;;;;;;54.25;44.25;;;;;;;;5123271;27;45333;-77
2022/04/25 07:32:37;;;;;;;;;47.75;41.00;;;;;;;;5124410;27;45301;-76
2022/04/25 07:35:04;;;;;;;;;52.00;43.50;;;;;;;;5125169;27;45432;-77
2022/04/25 07:37:29;;;;;;;;;52.00;43.00;;;;;;;;5123624;27;46159;-77
2022/04/25 07:39:56;;;;;;;;;54.25;44.00;;;;;;;;5124571;27;45263;-78
2022/04/25 07:42:21;;;;;;;;;50.75;42.00;;;;;;;;5123569;27;45325;-76
2022/04/25 07:44:46;;;;;;;;;55.50;45.25;;;;;;;;5123191;27;45464;-76
2022/04/25 07:47:12;;;;;;;;;54.25;43.00;;;;;;;;5122576;27;45383;-77
2022/04/25 07:49:38;;;;;;;;;52.75;44.25;;;;;;;;5123214;27;45472;-78
2022/04/25 07:52:03;;;;;;;;;54.00;44.00;;;;;;;;5120661;27;45388;-75
2022/04/25 07:54:28;;;;;;;;;55.75;44.75;;;;;;;;5122220;27;45508;-77
2022/04/25 07:56:55;;;;;;;;;53.25;44.00;;;;;;;;5103718;27;47124;-73
2022/04/25 07:59:20;;;;;;;;;54.50;44.75;;;;;;;;5103622;27;45322;-74
2022/04/25 08:01:46;;;;;;;;;54.25;45.25;;;;;;;;5122904;27;45332;-74
2022/04/25 08:04:11;;;;;;;;;53.25;42.25;;;;;;;;5122760;27;45338;-75
2022/04/25 08:06:37;;;;;;;;;55.25;45.25;;;;;;;;5122520;27;45325;-75
2022/04/25 08:09:03;;;;;;;;;54.75;44.75;;;;;;;;5121464;27;45467;-74
2022/04/25 08:11:28;;;;;;;;;58.00;47.75;;;;;;;;5143353;27;45152;-76
2022/04/25 08:19:21;;;;;;;;;58.75;48.00;;;;;;;;5123304;27;45252;-76
2022/04/25 08:21:47;;;;;;;;;56.75;45.25;;;;;;;;5122061;27;45256;-75
2022/04/25 08:24:13;;;;;;;;;54.25;44.50;;;;;;;;5102089;27;45509;-76
2022/04/25 08:26:38;;;;;;;;;55.00;45.25;;;;;;;;5100588;27;46049;-75
2022/04/25 08:29:04;;;;;;;;;52.25;43.50;;;;;;;;5100168;27;45450;-75
2022/04/25 08:31:33;;;;;;;;;54.00;44.25;;;;;;;;5100736;27;45246;-76
2022/04/25 08:33:59;;;;;;;;;55.50;45.75;;;;;;;;5100453;27;45675;-75
2022/04/25 08:36:24;;;;;;;;;53.75;43.75;;;;;;;;5100095;27;46200;-76
2022/04/25 08:38:50;;;;;;;;;54.00;45.00;;;;;;;;5081850;27;45602;-75
2022/04/25 08:41:17;;;;;;;;;54.50;44.50;;;;;;;;5100632;27;45359;-76
2022/04/25 08:43:42;;;;;;;;;48.00;39.00;;;;;;;;5100719;27;46078;-74
2022/04/25 08:46:09;;;;;;;;;54.50;45.00;;;;;;;;5080371;27;46457;-75
2022/04/25 08:48:35;;;;;;;;;50.25;43.00;;;;;;;;5101101;27;45412;-75
2022/04/25 08:51:01;;;;;;;;;55.00;44.25;;;;;;;;5101647;27;45240;-77
2022/04/25 08:53:27;;;;;;;;;54.25;44.25;;;;;;;;5101425;27;45286;-77
2022/04/25 08:55:54;;;;;;;;;48.50;40.75;;;;;;;;5101175;27;45414;-75
2022/04/25 08:58:19;;;;;;;;;53.00;44.00;;;;;;;;5088256;27;45841;-74
2022/04/25 09:00:45;;;;;;;;;52.25;43.50;;;;;;;;5101424;27;45304;-75
2022/04/25 09:03:12;;;;;;;;;53.75;44.00;;;;;;;;5101349;27;45395;-75
2022/04/25 09:05:38;;;;;;;;;52.00;43.50;;;;;;;;5085180;27;47256;-77
2022/04/25 09:08:03;;;;;;;;;50.75;43.25;;;;;;;;5099665;27;45395;-74
2022/04/25 09:10:29;;;;;;;;;54.00;43.75;;;;;;;;5080677;27;45520;-74
2022/04/25 09:12:56;;;;;;;;;50.75;41.50;;;;;;;;5101066;27;45333;-75
2022/04/25 09:15:21;;;;;;;;;44.50;37.00;;;;;;;;5107681;27;46219;-74
2022/04/25 09:17:47;;;;;;;;;50.00;41.00;;;;;;;;5102797;27;45789;-74
2022/04/25 09:20:12;;;;;;;;;48.25;40.25;;;;;;;;5121796;27;45265;-74
2022/04/25 09:22:39;;;;;;;;;53.00;43.25;;;;;;;;5115183;27;45441;-76
2022/04/25 09:25:07;;;;;;;;;51.50;43.00;;;;;;;;5140058;27;45364;-76
2022/04/25 09:27:33;;;;;;;;;48.00;40.75;;;;;;;;5128699;27;45279;-75
2022/04/25 09:30:18;;;;;;;;;46.25;39.25;;;;;;;;5100533;27;45287;-76
2022/04/25 09:32:52;;;;;;;;;50.50;42.75;;;;;;;;5146587;27;45569;-75
2022/04/25 09:35:24;;;;;;;;;47.00;40.00;;;;;;;;5111782;27;46664;-76
2022/04/25 09:37:49;;;;;;;;;48.00;39.25;;;;;;;;5115133;27;45443;-75
2022/04/25 09:40:21;;;;;;;;;50.50;40.75;;;;;;;;5116974;27;45400;-74
2022/04/25 09:42:47;;;;;;;;;48.25;40.00;;;;;;;;5117123;27;45293;-74
2022/04/25 09:45:14;;;;;;;;;48.75;39.25;;;;;;;;5115401;27;45537;-75
2022/04/25 09:47:39;;;;;;;;;44.50;38.25;;;;;;;;5116465;27;45487;-74
2022/04/25 09:50:06;;;;;;;;;46.25;38.25;;;;;;;;5113903;27;45489;-74
2022/04/25 09:52:33;;;;;;;;;47.50;40.50;;;;;;;;5099731;27;46154;-75
2022/04/25 09:55:27;;;;;;;;;46.75;38.50;;;;;;;;5096075;27;45306;-75
2022/04/25 09:57:53;;;;;;;;;46.25;38.50;;;;;;;;5086889;27;45418;-75
2022/04/25 10:00:30;;;;;;;;;40.50;35.75;;;;;;;;5096286;27;45562;-78
2022/04/25 10:02:56;;;;;;;;;43.50;36.75;;;;;;;;5094512;27;47988;-77
2022/04/25 10:05:21;;;;;;;;;45.25;38.00;;;;;;;;5094745;27;45290;-78
2022/04/25 10:07:47;;;;;;;;;49.00;38.25;;;;;;;;5095272;27;45481;-77
2022/04/25 10:10:13;;;;;;;;;44.00;37.00;;;;;;;;5110904;27;45472;-75
2022/04/25 10:12:38;;;;;;;;;45.75;38.25;;;;;;;;5116376;27;45811;-74
2022/04/25 10:15:04;;;;;;;;;50.00;40.50;;;;;;;;5120897;27;45463;-76
2022/04/25 10:17:31;;;;;;;;;43.50;36.00;;;;;;;;5138644;27;45301;-74
2022/04/25 10:19:56;;;;;;;;;43.00;34.75;;;;;;;;5137049;27;45345;-75
2022/04/25 10:22:22;;;;;;;;;36.25;31.50;;;;;;;;5136891;27;45317;-76
2022/04/25 10:24:47;;;;;;;;;40.50;33.50;;;;;;;;5137043;27;45375;-75
2022/04/25 10:27:16;;;;;;;;;44.50;38.00;;;;;;;;5136087;27;45461;-74
2022/04/25 10:29:48;;;;;;;;;38.50;35.25;;;;;;;;5136824;27;45459;-75
2022/04/25 10:32:17;;;;;;;;;42.00;35.33;;;;;;;;5128763;27;47582;-76
2022/04/25 10:34:46;;;;;;;;;43.25;37.00;;;;;;;;5106047;27;45284;-75
2022/04/25 10:37:28;;;;;;;;;52.75;44.50;;;;;;;;5096052;27;45491;-76
2022/04/25 10:39:54;;;;;;;;;46.50;38.50;;;;;;;;5114222;27;45235;-76
2022/04/25 10:45:03;;;;;;;;;43.00;35.50;;;;;;;;5102364;27;45250;-74
2022/04/25 10:47:29;;;;;;;;;41.75;35.75;;;;;;;;5102450;27;45893;-76
2022/04/25 10:49:56;;;;;;;;;42.75;35.50;;;;;;;;5101009;27;46237;-78
2022/04/25 10:52:33;;;;;;;;;32.75;30.50;;;;;;;;5097489;27;47242;-76
2022/04/25 10:55:19;;;;;;;;;31.67;30.67;;;;;;;;5080154;28;45349;-78
2022/04/25 10:58:03;;;;;;;;;37.67;34.33;;;;;;;;5095989;27;45271;-79
2022/04/25 11:00:38;;;;;;;;;29.67;28.00;;;;;;;;5096975;27;45599;-77
2022/04/25 11:03:04;;;;;;;;;27.33;27.33;;;;;;;;5101169;27;45645;-77
2022/04/25 11:05:29;;;;;;;;;28.00;27.00;;;;;;;;5101214;27;45418;-78
2022/04/25 11:08:14;;;;;;;;;32.33;29.33;;;;;;;;5099985;27;45428;-76
2022/04/25 11:10:47;;;;;;;;;44.50;37.00;;;;;;;;5099532;27;46292;-77
2022/04/25 11:13:12;;;;;;;;;53.75;41.75;;;;;;;;5101690;27;45673;-77
2022/04/25 11:15:38;;;;;;;;;80.00;73.75;;;;;;;;5110836;27;45352;-74
2022/04/25 11:18:24;;;;;;;;;39.33;33.00;;;;;;;;5122888;27;45318;-75
2022/04/25 11:20:55;;;;;;;;;28.33;28.33;;;;;;;;5100149;27;46358;-76
2022/04/25 11:23:28;;;;;;;;;23.33;23.00;;;;;;;;5100173;27;46902;-77
2022/04/25 11:25:55;;;;;;;;;18.67;18.00;;;;;;;;5103344;27;44680;-76
2022/04/25 11:28:21;;;;;;;;;18.67;17.67;;;;;;;;5103394;27;45348;-75
2022/04/25 11:31:06;;;;;;;;;22.67;22.67;;;;;;;;5103388;27;45498;-75
2022/04/25 11:33:39;;;;;;;;;21.33;19.67;;;;;;;;5103724;27;46309;-75
2022/04/25 11:36:05;;;;;;;;;21.50;21.50;;;;;;;;5104527;27;44734;-76
2022/04/25 11:39:50;;;;;;;;;21.33;20.33;;;;;;;;5103649;27;45412;-75
2022/04/25 11:41:20;;;;;;;;;27.00;25.67;;;;;;;;5105333;27;45446;-74
2022/04/25 11:43:46;;;;;;;;;20.33;20.33;;;;;;;;5105672;27;45197;-75
2022/04/25 11:46:11;;;;;;;;;21.33;20.33;;;;;;;;5096971;27;45703;-75
2022/04/25 11:48:36;;;;;;;;;18.67;18.67;;;;;;;;5081589;27;45516;-76
2022/04/25 11:51:03;;;;;;;;;20.00;20.00;;;;;;;;5083511;28;45471;-76
2022/04/25 11:53:33;;;;;;;;;20.00;20.00;;;;;;;;5083397;27;45264;-76
2022/04/25 11:56:01;;;;;;;;;18.67;18.67;;;;;;;;5082271;27;45429;-77
2022/04/25 11:58:30;;;;;;;;;17.67;17.67;;;;;;;;5083870;28;45278;-75
2022/04/25 12:00:55;;;;;;;;;15.33;15.33;;;;;;;;5083503;28;45507;-76
2022/04/25 12:03:23;;;;;;;;;55.50;43.50;;;;;;;;5083394;28;45322;-75
2022/04/25 12:05:48;;;;;;;;;16.00;15.00;;;;;;;;5082541;27;45421;-76
2022/04/25 12:16:29;;;;;;;;;33.00;30.67;;;;;;;;5121649;27;45391;-77
2022/04/25 12:18:54;;;;;;;;;22.67;22.00;;;;;;;;5129381;27;45168;-76
2022/04/25 12:21:20;;;;;;;;;18.67;18.67;;;;;;;;5112571;27;45466;-74
2022/04/25 12:23:49;;;;;;;;;14.67;14.00;;;;;;;;5100640;27;45381;-76
2022/04/25 12:26:18;;;;;;;;;10.67;10.00;;;;;;;;5104551;27;45397;-74
2022/04/25 12:28:52;;;;;;;;;14.67;14.67;;;;;;;;5101948;27;45358;-75
2022/04/25 12:31:19;;;;;;;;;17.00;16.33;;;;;;;;5100668;27;45380;-75
2022/04/25 12:33:45;;;;;;;;;18.00;17.67;;;;;;;;5103003;27;45453;-75
2022/04/25 12:36:12;;;;;;;;;24.67;22.00;;;;;;;;5104481;27;45255;-74
2022/04/25 12:38:57;;;;;;;;;17.00;17.00;;;;;;;;5100734;27;45289;-75
2022/04/25 12:41:22;;;;;;;;;34.33;31.33;;;;;;;;5100525;27;45544;-75
2022/04/25 12:43:49;;;;;;;;;13.33;11.67;;;;;;;;5103552;27;47175;-74
2022/04/25 12:46:15;;;;;;;;;17.67;16.67;;;;;;;;5106990;27;45418;-75
2022/04/25 12:48:54;;;;;;;;;39.00;34.67;;;;;;;;5100674;27;45341;-81
2022/04/25 12:51:45;;;;;;;;;31.33;30.00;;;;;;;;5101580;27;45530;-82
2022/04/25 12:54:22;;;;;;;;;30.00;29.00;;;;;;;;5092206;27;46548;-83
2022/04/25 12:56:49;;;;;;;;;26.00;23.67;;;;;;;;5100050;27;45327;-82
2022/04/25 12:59:30;;;;;;;;;24.00;22.67;;;;;;;;5115176;27;45400;-86
2022/04/25 13:02:04;;;;;;;;;29.00;26.67;;;;;;;;5093008;27;46289;-85
2022/04/25 13:04:29;;;;;;;;;19.67;18.67;;;;;;;;5101426;27;46992;-75
2022/04/25 13:06:55;;;;;;;;;12.67;12.67;;;;;;;;5103821;27;45363;-75
2022/04/25 13:09:20;;;;;;;;;13.67;13.67;;;;;;;;5105456;27;45519;-76
2022/04/25 13:11:45;;;;;;;;;15.00;15.00;;;;;;;;5105840;27;46908;-76
2022/04/25 13:14:11;;;;;;;;;12.33;12.33;;;;;;;;5106069;27;47019;-75
2022/04/25 13:16:36;;;;;;;;;10.67;10.67;;;;;;;;5122928;27;45399;-75
2022/04/25 13:19:01;;;;;;;;;10.00;8.67;;;;;;;;5122105;27;45319;-75
2022/04/25 13:21:27;;;;;;;;;14.00;13.67;;;;;;;;5120529;27;45636;-74
2022/04/25 13:23:52;;;;;;;;;9.00;8.67;;;;;;;;5120988;27;45211;-75
2022/04/25 13:26:18;;;;;;;;;11.00;11.00;;;;;;;;5120746;27;45379;-75
2022/04/25 13:28:43;;;;;;;;;8.33;8.33;;;;;;;;5121241;27;45326;-75
2022/04/25 13:31:08;;;;;;;;;7.33;7.33;;;;;;;;5121579;27;45411;-75
2022/04/25 13:33:34;;;;;;;;;12.00;10.00;;;;;;;;5121564;27;46412;-75
2022/04/25 13:35:59;;;;;;;;;12.33;11.00;;;;;;;;5120446;27;45261;-75
2022/04/25 13:38:26;;;;;;;;;14.00;14.00;;;;;;;;5121776;27;45169;-74
2022/04/25 13:40:51;;;;;;;;;14.33;12.00;;;;;;;;5122228;27;45357;-75
2022/04/25 13:43:17;;;;;;;;;9.67;9.33;;;;;;;;5123027;27;45242;-76
2022/04/25 13:45:42;;;;;;;;;6.67;6.67;;;;;;;;5124297;27;45485;-77
2022/04/25 13:48:07;;;;;;;;;10.33;10.33;;;;;;;;5122418;27;45350;-76
2022/04/25 13:50:35;;;;;;;;;6.00;6.00;;;;;;;;5121479;27;45303;-75
2022/04/25 13:53:00;;;;;;;;;8.00;6.67;;;;;;;;5123521;27;46109;-76
2022/04/25 13:55:25;;;;;;;;;10.67;10.00;;;;;;;;5090754;27;45380;-72
2022/04/25 13:57:51;;;;;;;;;8.33;8.33;;;;;;;;5094158;27;45338;-72
2022/04/25 14:00:16;;;;;;;;;10.00;9.00;;;;;;;;5095969;27;45512;-71
2022/04/25 14:05:25;;;;;;;;;50.50;41.75;;;;;;;;5078918;28;45545;-69
2022/04/25 14:07:51;;;;;;;;;23.67;23.33;;;;;;;;5078865;27;45495;-68
2022/04/25 14:10:16;;;;;;;;;22.33;21.33;;;;;;;;5078753;27;45457;-72
2022/04/25 14:12:41;;;;;;;;;14.67;14.67;;;;;;;;5078487;28;45606;-74
2022/04/25 14:15:07;;;;;;;;;11.00;11.00;;;;;;;;5092049;27;45364;-78
2022/04/25 14:17:33;;;;;;;;;14.00;13.67;;;;;;;;5101824;27;45389;-78
2022/04/25 14:19:58;;;;;;;;;14.33;14.33;;;;;;;;5099382;27;45394;-76
2022/04/25 14:22:23;;;;;;;;;11.67;11.67;;;;;;;;5102205;27;45845;-74
2022/04/25 14:24:48;;;;;;;;;7.67;7.00;;;;;;;;5102746;27;45781;-75
2022/04/25 14:27:14;;;;;;;;;9.33;8.67;;;;;;;;5102583;27;45321;-74
2022/04/25 14:29:39;;;;;;;;;8.00;8.00;;;;;;;;5098236;27;45316;-77
2022/04/25 14:32:04;;;;;;;;;9.00;8.33;;;;;;;;5095135;27;47060;-75
2022/04/25 14:34:30;;;;;;;;;10.00;10.00;;;;;;;;5100928;27;46322;-74
2022/04/25 14:36:56;;;;;;;;;10.00;9.67;;;;;;;;5102826;27;45316;-75
2022/04/25 14:39:21;;;;;;;;;8.00;8.00;;;;;;;;5099919;27;46809;-76
2022/04/25 14:41:46;;;;;;;;;9.00;8.00;;;;;;;;5099814;27;47186;-75
2022/04/25 14:44:11;;;;;;;;;9.67;9.67;;;;;;;;5102080;27;45476;-75
2022/04/25 14:46:37;;;;;;;;;9.00;9.00;;;;;;;;5101556;27;45270;-76
2022/04/25 14:49:03;;;;;;;;;12.33;11.00;;;;;;;;5101144;27;45456;-76
2022/04/25 14:54:21;;;;;;;;;8.00;7.67;;;;;;;;5096733;27;45302;-75
2022/04/25 14:56:47;;;;;;;;;7.00;6.33;;;;;;;;5080317;27;45542;-75